sensor_id;sensor_type;location;lat;lon;timestamp;pressure;altitude;pressure_sealevel;temperature;humidity
41947;BME280;27638;42.184;24.848;2022-10-18T00:01:41;101547.44;;;10.19;64.81
41947;BME280;27638;42.184;24.848;2022-10-18T00:04:06;101542.91;;;10.21;64.84
41947;BME280;27638;42.184;24.848;2022-10-18T00:06:32;101549.69;;;10.13;65.14
41947;BME280;27638;42.184;24.848;2022-10-18T00:08:57;101529.34;;;10.02;65.31
41947;BME280;27638;42.184;24.848;2022-10-18T00:11:23;101537.88;;;10.30;64.56
41947;BME280;27638;42.184;24.848;2022-10-18T00:13:48;101541.41;;;10.41;64.30
41947;BME280;27638;42.184;24.848;2022-10-18T00:16:15;101539.50;;;10.43;63.82
41947;BME280;27638;42.184;24.848;2022-10-18T00:18:42;101530.88;;;10.29;63.89
41947;BME280;27638;42.184;24.848;2022-10-18T00:21:11;101529.25;;;10.15;64.51
41947;BME280;27638;42.184;24.848;2022-10-18T00:23:37;101527.16;;;10.31;64.10
41947;BME280;27638;42.184;24.848;2022-10-18T00:26:14;101527.41;;;10.39;64.12
41947;BME280;27638;42.184;24.848;2022-10-18T00:28:40;101521.56;;;10.47;63.24
41947;BME280;27638;42.184;24.848;2022-10-18T00:31:16;101519.44;;;10.28;63.21
41947;BME280;27638;42.184;24.848;2022-10-18T00:33:43;101520.41;;;10.27;63.49
41947;BME280;27638;42.184;24.848;2022-10-18T00:36:09;101504.81;;;10.11;64.08
41947;BME280;27638;42.184;24.848;2022-10-18T00:38:36;101509.75;;;10.16;63.85
41947;BME280;27638;42.184;24.848;2022-10-18T00:41:02;101512.59;;;10.02;64.58
41947;BME280;27638;42.184;24.848;2022-10-18T00:43:28;101515.47;;;9.99;65.16
41947;BME280;27638;42.184;24.848;2022-10-18T00:45:53;101525.38;;;9.73;65.48
41947;BME280;27638;42.184;24.848;2022-10-18T00:48:19;101523.28;;;9.89;65.02
41947;BME280;27638;42.184;24.848;2022-10-18T00:50:46;101525.34;;;9.97;64.11
41947;BME280;27638;42.184;24.848;2022-10-18T00:53:16;101527.31;;;10.06;63.80
41947;BME280;27638;42.184;24.848;2022-10-18T00:55:43;101527.72;;;9.88;64.52
41947;BME280;27638;42.184;24.848;2022-10-18T00:58:10;101523.69;;;9.72;64.86
41947;BME280;27638;42.184;24.848;2022-10-18T01:00:38;101518.03;;;9.76;65.13
41947;BME280;27638;42.184;24.848;2022-10-18T01:03:06;101517.09;;;9.77;65.01
41947;BME280;27638;42.184;24.848;2022-10-18T01:05:32;101512.84;;;9.99;63.43
41947;BME280;27638;42.184;24.848;2022-10-18T01:19:27;101509.13;;;10.01;63.28
41947;BME280;27638;42.184;24.848;2022-10-18T01:27:42;101501.19;;;10.01;62.82
41947;BME280;27638;42.184;24.848;2022-10-18T01:33:21;101501.16;;;9.90;63.41
41947;BME280;27638;42.184;24.848;2022-10-18T01:38:46;101471.63;;;9.48;64.23
41947;BME280;27638;42.184;24.848;2022-10-18T01:41:13;101506.13;;;9.47;64.55
41947;BME280;27638;42.184;24.848;2022-10-18T01:43:42;101502.91;;;9.54;64.04
41947;BME280;27638;42.184;24.848;2022-10-18T01:46:08;101495.25;;;9.63;63.71
41947;BME280;27638;42.184;24.848;2022-10-18T01:48:36;101494.69;;;9.70;62.91
41947;BME280;27638;42.184;24.848;2022-10-18T01:51:04;101496.00;;;9.65;63.34
41947;BME280;27638;42.184;24.848;2022-10-18T01:53:32;101501.84;;;9.57;63.54
41947;BME280;27638;42.184;24.848;2022-10-18T01:56:07;101493.63;;;9.49;63.65
41947;BME280;27638;42.184;24.848;2022-10-18T01:58:50;101490.94;;;9.38;63.68
41947;BME280;27638;42.184;24.848;2022-10-18T02:03:55;101498.44;;;9.31;63.82
41947;BME280;27638;42.184;24.848;2022-10-18T02:06:26;101488.06;;;9.41;63.51
41947;BME280;27638;42.184;24.848;2022-10-18T02:09:07;101486.38;;;9.40;63.46
41947;BME280;27638;42.184;24.848;2022-10-18T02:11:35;101487.44;;;9.37;63.76
41947;BME280;27638;42.184;24.848;2022-10-18T02:14:06;101484.78;;;9.37;63.39
41947;BME280;27638;42.184;24.848;2022-10-18T02:16:50;101468.41;;;9.32;63.22
41947;BME280;27638;42.184;24.848;2022-10-18T02:19:25;101471.47;;;9.26;63.58
41947;BME280;27638;42.184;24.848;2022-10-18T02:21:54;101472.56;;;9.23;64.01
41947;BME280;27638;42.184;24.848;2022-10-18T02:24:22;101476.16;;;9.22;64.12
41947;BME280;27638;42.184;24.848;2022-10-18T02:26:50;101470.81;;;9.35;62.90
41947;BME280;27638;42.184;24.848;2022-10-18T02:29:16;101480.34;;;9.38;62.86
41947;BME280;27638;42.184;24.848;2022-10-18T02:31:47;101473.94;;;9.16;63.36
41947;BME280;27638;42.184;24.848;2022-10-18T02:34:41;101471.97;;;9.07;64.32
41947;BME280;27638;42.184;24.848;2022-10-18T02:37:07;101486.06;;;8.95;64.31
41947;BME280;27638;42.184;24.848;2022-10-18T02:39:35;101492.91;;;8.98;64.75
41947;BME280;27638;42.184;24.848;2022-10-18T02:42:03;101479.38;;;9.02;64.36
41947;BME280;27638;42.184;24.848;2022-10-18T02:44:36;101488.41;;;9.23;63.39
41947;BME280;27638;42.184;24.848;2022-10-18T02:47:03;101489.66;;;9.31;63.30
41947;BME280;27638;42.184;24.848;2022-10-18T02:49:29;101489.91;;;9.15;63.69
41947;BME280;27638;42.184;24.848;2022-10-18T02:51:55;101496.56;;;9.20;62.41
41947;BME280;27638;42.184;24.848;2022-10-18T02:54:21;101482.72;;;9.17;62.62
41947;BME280;27638;42.184;24.848;2022-10-18T02:56:47;101491.72;;;9.14;61.87
41947;BME280;27638;42.184;24.848;2022-10-18T02:59:12;101497.47;;;8.95;62.24
41947;BME280;27638;42.184;24.848;2022-10-18T03:01:38;101498.75;;;8.90;62.12
41947;BME280;27638;42.184;24.848;2022-10-18T03:04:03;101496.03;;;8.79;62.68
41947;BME280;27638;42.184;24.848;2022-10-18T03:06:30;101500.91;;;8.72;62.74
41947;BME280;27638;42.184;24.848;2022-10-18T03:08:56;101497.72;;;8.67;63.41
41947;BME280;27638;42.184;24.848;2022-10-18T03:11:21;101500.38;;;8.67;63.33
41947;BME280;27638;42.184;24.848;2022-10-18T03:13:47;101487.69;;;8.59;63.77
41947;BME280;27638;42.184;24.848;2022-10-18T03:16:14;101493.00;;;8.47;63.19
41947;BME280;27638;42.184;24.848;2022-10-18T03:18:40;101491.28;;;8.33;63.95
41947;BME280;27638;42.184;24.848;2022-10-18T03:21:06;101498.78;;;8.39;64.15
41947;BME280;27638;42.184;24.848;2022-10-18T03:23:32;101512.56;;;8.30;64.97
41947;BME280;27638;42.184;24.848;2022-10-18T03:25:58;101502.50;;;8.37;64.97
41947;BME280;27638;42.184;24.848;2022-10-18T03:28:23;101497.09;;;8.51;65.15
41947;BME280;27638;42.184;24.848;2022-10-18T03:30:49;101496.25;;;8.50;65.36
41947;BME280;27638;42.184;24.848;2022-10-18T03:33:14;101499.84;;;8.49;65.46
41947;BME280;27638;42.184;24.848;2022-10-18T03:35:40;101499.41;;;8.68;64.21
41947;BME280;27638;42.184;24.848;2022-10-18T03:38:05;101500.91;;;8.72;63.89
41947;BME280;27638;42.184;24.848;2022-10-18T03:40:31;101498.88;;;8.76;63.81
41947;BME280;27638;42.184;24.848;2022-10-18T03:42:56;101499.28;;;8.82;63.22
41947;BME280;27638;42.184;24.848;2022-10-18T03:45:21;101504.91;;;8.78;63.84
41947;BME280;27638;42.184;24.848;2022-10-18T03:47:47;101507.22;;;8.82;63.46
41947;BME280;27638;42.184;24.848;2022-10-18T03:50:12;101505.00;;;8.89;63.21
41947;BME280;27638;42.184;24.848;2022-10-18T03:52:38;101496.75;;;8.81;63.48
41947;BME280;27638;42.184;24.848;2022-10-18T03:55:03;101507.31;;;8.81;63.25
41947;BME280;27638;42.184;24.848;2022-10-18T03:57:29;101507.53;;;8.78;63.34
41947;BME280;27638;42.184;24.848;2022-10-18T03:59:55;101501.31;;;8.79;63.27
41947;BME280;27638;42.184;24.848;2022-10-18T04:02:20;101510.19;;;8.78;63.51
41947;BME280;27638;42.184;24.848;2022-10-18T04:04:45;101502.91;;;8.69;63.67
41947;BME280;27638;42.184;24.848;2022-10-18T04:07:11;101503.97;;;8.66;64.40
41947;BME280;27638;42.184;24.848;2022-10-18T04:09:36;101490.88;;;8.64;63.95
41947;BME280;27638;42.184;24.848;2022-10-18T04:12:02;101502.66;;;8.84;63.35
41947;BME280;27638;42.184;24.848;2022-10-18T04:14:27;101502.34;;;8.89;63.02
41947;BME280;27638;42.184;24.848;2022-10-18T04:16:52;101499.28;;;8.95;62.96
41947;BME280;27638;42.184;24.848;2022-10-18T04:19:18;101495.03;;;8.92;62.90
41947;BME280;27638;42.184;24.848;2022-10-18T04:21:43;101498.75;;;8.90;62.61
41947;BME280;27638;42.184;24.848;2022-10-18T04:24:09;101498.53;;;8.93;62.87
41947;BME280;27638;42.184;24.848;2022-10-18T04:26:34;101496.16;;;8.64;63.27
41947;BME280;27638;42.184;24.848;2022-10-18T04:29:00;101493.19;;;8.69;63.03
41947;BME280;27638;42.184;24.848;2022-10-18T04:31:25;101491.91;;;8.62;64.15
41947;BME280;27638;42.184;24.848;2022-10-18T04:33:50;101490.97;;;8.63;64.39
41947;BME280;27638;42.184;24.848;2022-10-18T04:36:16;101491.06;;;8.74;64.09
41947;BME280;27638;42.184;24.848;2022-10-18T04:38:41;101490.97;;;8.76;63.76
41947;BME280;27638;42.184;24.848;2022-10-18T04:41:07;101498.44;;;8.82;63.44
41947;BME280;27638;42.184;24.848;2022-10-18T04:43:32;101501.00;;;8.71;63.76
41947;BME280;27638;42.184;24.848;2022-10-18T04:45:57;101504.69;;;8.68;63.34
41947;BME280;27638;42.184;24.848;2022-10-18T04:48:23;101505.75;;;8.66;63.94
41947;BME280;27638;42.184;24.848;2022-10-18T04:50:49;101503.22;;;8.77;63.05
41947;BME280;27638;42.184;24.848;2022-10-18T04:53:15;101500.88;;;8.85;62.89
41947;BME280;27638;42.184;24.848;2022-10-18T04:55:48;101502.56;;;8.86;63.16
41947;BME280;27638;42.184;24.848;2022-10-18T04:58:14;101498.00;;;8.88;63.25
41947;BME280;27638;42.184;24.848;2022-10-18T05:00:40;101508.88;;;8.96;62.43
41947;BME280;27638;42.184;24.848;2022-10-18T05:03:06;101487.78;;;8.83;62.58
41947;BME280;27638;42.184;24.848;2022-10-18T05:05:32;101507.53;;;8.90;62.96
41947;BME280;27638;42.184;24.848;2022-10-18T05:07:57;101504.16;;;8.88;63.37
41947;BME280;27638;42.184;24.848;2022-10-18T05:10:23;101494.53;;;8.87;63.08
41947;BME280;27638;42.184;24.848;2022-10-18T05:12:48;101496.09;;;9.03;63.06
41947;BME280;27638;42.184;24.848;2022-10-18T05:15:14;101497.84;;;9.15;62.56
41947;BME280;27638;42.184;24.848;2022-10-18T05:17:39;101508.72;;;9.23;62.57
41947;BME280;27638;42.184;24.848;2022-10-18T05:20:05;101518.78;;;9.18;62.75
41947;BME280;27638;42.184;24.848;2022-10-18T05:22:30;101516.13;;;9.18;62.86
41947;BME280;27638;42.184;24.848;2022-10-18T05:24:56;101515.97;;;9.32;62.32
41947;BME280;27638;42.184;24.848;2022-10-18T05:27:21;101517.56;;;9.35;62.67
41947;BME280;27638;42.184;24.848;2022-10-18T05:29:46;101506.75;;;9.50;62.08
41947;BME280;27638;42.184;24.848;2022-10-18T05:32:12;101511.13;;;9.26;62.92
41947;BME280;27638;42.184;24.848;2022-10-18T05:34:37;101511.88;;;9.28;63.10
41947;BME280;27638;42.184;24.848;2022-10-18T05:37:03;101514.16;;;9.45;62.80
41947;BME280;27638;42.184;24.848;2022-10-18T05:39:28;101509.56;;;9.23;63.51
41947;BME280;27638;42.184;24.848;2022-10-18T05:41:54;101509.03;;;9.18;63.90
41947;BME280;27638;42.184;24.848;2022-10-18T05:44:19;101510.94;;;9.16;64.01
41947;BME280;27638;42.184;24.848;2022-10-18T05:46:45;101510.28;;;9.25;63.98
41947;BME280;27638;42.184;24.848;2022-10-18T05:49:12;101507.44;;;9.28;64.09
41947;BME280;27638;42.184;24.848;2022-10-18T05:51:38;101507.13;;;9.57;63.68
41947;BME280;27638;42.184;24.848;2022-10-18T05:54:03;101503.13;;;9.75;63.40
41947;BME280;27638;42.184;24.848;2022-10-18T05:56:29;101514.50;;;10.23;62.04
41947;BME280;27638;42.184;24.848;2022-10-18T05:58:54;101505.38;;;10.28;62.16
41947;BME280;27638;42.184;24.848;2022-10-18T06:01:20;101504.84;;;10.58;61.07
41947;BME280;27638;42.184;24.848;2022-10-18T06:03:46;101505.31;;;10.63;60.76
41947;BME280;27638;42.184;24.848;2022-10-18T06:06:12;101501.13;;;10.71;60.97
41947;BME280;27638;42.184;24.848;2022-10-18T06:08:39;101514.38;;;10.94;60.96
41947;BME280;27638;42.184;24.848;2022-10-18T06:11:13;101498.44;;;11.16;60.02
41947;BME280;27638;42.184;24.848;2022-10-18T06:13:44;101519.63;;;11.27;60.09
41947;BME280;27638;42.184;24.848;2022-10-18T06:16:11;101514.69;;;11.23;60.76
41947;BME280;27638;42.184;24.848;2022-10-18T06:18:37;101523.22;;;11.37;60.17
41947;BME280;27638;42.184;24.848;2022-10-18T06:21:03;101518.38;;;11.42;60.72
41947;BME280;27638;42.184;24.848;2022-10-18T06:23:29;101524.84;;;11.83;59.00
41947;BME280;27638;42.184;24.848;2022-10-18T06:25:59;101524.78;;;11.94;60.02
41947;BME280;27638;42.184;24.848;2022-10-18T06:28:25;101514.81;;;12.28;58.41
41947;BME280;27638;42.184;24.848;2022-10-18T06:30:50;101512.75;;;12.53;57.95
41947;BME280;27638;42.184;24.848;2022-10-18T06:33:16;101512.03;;;12.71;57.52
41947;BME280;27638;42.184;24.848;2022-10-18T06:35:41;101524.50;;;12.50;57.98
41947;BME280;27638;42.184;24.848;2022-10-18T06:38:06;101507.50;;;12.21;59.70
41947;BME280;27638;42.184;24.848;2022-10-18T06:40:32;101518.78;;;12.13;60.24
41947;BME280;27638;42.184;24.848;2022-10-18T06:43:05;101517.81;;;12.35;60.13
41947;BME280;27638;42.184;24.848;2022-10-18T06:45:55;101519.88;;;12.73;60.69
41947;BME280;27638;42.184;24.848;2022-10-18T06:48:22;101519.84;;;13.03;59.77
41947;BME280;27638;42.184;24.848;2022-10-18T06:50:57;101519.09;;;13.22;60.05
41947;BME280;27638;42.184;24.848;2022-10-18T06:53:24;101509.44;;;13.31;59.19
41947;BME280;27638;42.184;24.848;2022-10-18T06:55:50;101508.00;;;13.57;58.62
41947;BME280;27638;42.184;24.848;2022-10-18T06:58:16;101507.53;;;13.52;58.71
41947;BME280;27638;42.184;24.848;2022-10-18T07:00:41;101517.09;;;13.84;58.17
41947;BME280;27638;42.184;24.848;2022-10-18T07:03:08;101510.81;;;13.94;57.44
41947;BME280;27638;42.184;24.848;2022-10-18T07:05:33;101516.13;;;14.04;57.14
41947;BME280;27638;42.184;24.848;2022-10-18T07:07:59;101508.66;;;14.46;56.33
41947;BME280;27638;42.184;24.848;2022-10-18T07:10:24;101500.38;;;14.59;56.04
41947;BME280;27638;42.184;24.848;2022-10-18T07:12:50;101504.31;;;14.16;56.87
41947;BME280;27638;42.184;24.848;2022-10-18T07:15:15;101505.59;;;14.02;57.86
41947;BME280;27638;42.184;24.848;2022-10-18T07:17:45;101501.66;;;14.16;57.16
41947;BME280;27638;42.184;24.848;2022-10-18T07:20:11;101503.88;;;14.30;56.97
41947;BME280;27638;42.184;24.848;2022-10-18T07:22:36;101494.34;;;14.47;57.00
41947;BME280;27638;42.184;24.848;2022-10-18T07:25:04;101487.44;;;14.54;55.90
41947;BME280;27638;42.184;24.848;2022-10-18T07:27:29;101484.50;;;14.57;54.65
41947;BME280;27638;42.184;24.848;2022-10-18T07:29:55;101479.53;;;14.72;54.54
41947;BME280;27638;42.184;24.848;2022-10-18T07:32:20;101479.28;;;14.65;54.85
41947;BME280;27638;42.184;24.848;2022-10-18T07:34:46;101481.72;;;14.86;54.38
41947;BME280;27638;42.184;24.848;2022-10-18T07:37:11;101472.69;;;14.69;53.90
41947;BME280;27638;42.184;24.848;2022-10-18T07:39:37;101481.63;;;14.78;53.97
41947;BME280;27638;42.184;24.848;2022-10-18T07:42:02;101473.69;;;14.96;53.83
41947;BME280;27638;42.184;24.848;2022-10-18T07:44:27;101463.34;;;15.11;52.69
41947;BME280;27638;42.184;24.848;2022-10-18T07:46:53;101467.88;;;15.28;52.52
41947;BME280;27638;42.184;24.848;2022-10-18T07:49:18;101465.34;;;15.26;52.18
41947;BME280;27638;42.184;24.848;2022-10-18T07:51:44;101458.88;;;15.29;52.71
41947;BME280;27638;42.184;24.848;2022-10-18T07:54:09;101447.66;;;15.43;52.27
41947;BME280;27638;42.184;24.848;2022-10-18T07:56:34;101457.56;;;15.60;51.20
41947;BME280;27638;42.184;24.848;2022-10-18T07:59:00;101456.94;;;15.84;50.93
41947;BME280;27638;42.184;24.848;2022-10-18T08:01:25;101442.88;;;16.00;50.88
41947;BME280;27638;42.184;24.848;2022-10-18T08:03:51;101441.72;;;16.03;50.74
41947;BME280;27638;42.184;24.848;2022-10-18T08:06:18;101440.63;;;16.13;49.89
41947;BME280;27638;42.184;24.848;2022-10-18T08:08:44;101432.03;;;16.27;49.87
41947;BME280;27638;42.184;24.848;2022-10-18T08:11:13;101432.94;;;16.10;50.10
41947;BME280;27638;42.184;24.848;2022-10-18T08:13:39;101410.84;;;16.34;49.46
41947;BME280;27638;42.184;24.848;2022-10-18T08:16:07;101429.72;;;16.33;49.29
41947;BME280;27638;42.184;24.848;2022-10-18T08:18:34;101418.50;;;16.29;49.61
41947;BME280;27638;42.184;24.848;2022-10-18T08:21:00;101411.50;;;16.28;49.23
41947;BME280;27638;42.184;24.848;2022-10-18T08:23:25;101423.66;;;16.22;49.70
41947;BME280;27638;42.184;24.848;2022-10-18T08:25:51;101413.72;;;16.41;50.13
41947;BME280;27638;42.184;24.848;2022-10-18T08:28:16;101407.78;;;16.21;50.07
41947;BME280;27638;42.184;24.848;2022-10-18T08:30:42;101397.03;;;16.47;50.12
41947;BME280;27638;42.184;24.848;2022-10-18T08:33:07;101397.84;;;16.65;49.41
41947;BME280;27638;42.184;24.848;2022-10-18T08:35:33;101401.31;;;17.00;49.38
41947;BME280;27638;42.184;24.848;2022-10-18T08:37:59;101395.31;;;17.14;47.28
41947;BME280;27638;42.184;24.848;2022-10-18T08:40:24;101389.50;;;17.35;47.99
41947;BME280;27638;42.184;24.848;2022-10-18T08:43:20;101376.94;;;17.43;47.76
41947;BME280;27638;42.184;24.848;2022-10-18T08:45:48;101376.91;;;17.11;48.89
41947;BME280;27638;42.184;24.848;2022-10-18T08:48:20;101376.25;;;17.33;48.80
41947;BME280;27638;42.184;24.848;2022-10-18T08:50:48;101376.44;;;17.23;48.73
41947;BME280;27638;42.184;24.848;2022-10-18T08:53:28;101369.56;;;17.13;48.65
41947;BME280;27638;42.184;24.848;2022-10-18T08:56:09;101368.38;;;17.15;49.12
41947;BME280;27638;42.184;24.848;2022-10-18T08:58:40;101363.34;;;17.04;48.84
41947;BME280;27638;42.184;24.848;2022-10-18T09:04:09;101366.38;;;17.17;48.56
41947;BME280;27638;42.184;24.848;2022-10-18T09:07:03;101355.31;;;17.04;49.03
41947;BME280;27638;42.184;24.848;2022-10-18T09:09:42;101346.44;;;17.04;49.23
41947;BME280;27638;42.184;24.848;2022-10-18T09:20:57;101340.78;;;17.31;49.74
41947;BME280;27638;42.184;24.848;2022-10-18T09:23:36;101337.25;;;17.63;48.93
41947;BME280;27638;42.184;24.848;2022-10-18T09:26:12;101332.06;;;17.62;49.01
41947;BME280;27638;42.184;24.848;2022-10-18T09:31:50;101319.84;;;17.59;48.21
41947;BME280;27638;42.184;24.848;2022-10-18T09:34:39;101322.88;;;17.56;48.07
41947;BME280;27638;42.184;24.848;2022-10-18T09:37:17;101312.19;;;17.72;47.99
41947;BME280;27638;42.184;24.848;2022-10-18T09:39:44;101303.09;;;17.65;48.32
41947;BME280;27638;42.184;24.848;2022-10-18T09:42:19;101299.94;;;17.62;48.28
41947;BME280;27638;42.184;24.848;2022-10-18T09:44:54;101293.09;;;17.51;48.64
41947;BME280;27638;42.184;24.848;2022-10-18T09:47:25;101294.75;;;17.60;48.69
41947;BME280;27638;42.184;24.848;2022-10-18T09:49:56;101295.75;;;17.43;49.20
41947;BME280;27638;42.184;24.848;2022-10-18T09:52:33;101292.06;;;17.60;47.69
41947;BME280;27638;42.184;24.848;2022-10-18T09:55:12;101278.16;;;17.56;48.00
41947;BME280;27638;42.184;24.848;2022-10-18T09:57:42;101275.16;;;17.68;47.51
41947;BME280;27638;42.184;24.848;2022-10-18T10:00:17;101263.44;;;17.77;48.58
41947;BME280;27638;42.184;24.848;2022-10-18T10:02:43;101264.78;;;17.81;48.17
41947;BME280;27638;42.184;24.848;2022-10-18T10:05:12;101255.38;;;17.85;46.66
41947;BME280;27638;42.184;24.848;2022-10-18T10:07:44;101220.75;;;17.59;47.77
41947;BME280;27638;42.184;24.848;2022-10-18T10:10:23;101246.13;;;17.96;46.46
41947;BME280;27638;42.184;24.848;2022-10-18T10:15:37;101235.28;;;17.89;46.35
41947;BME280;27638;42.184;24.848;2022-10-18T10:18:05;101229.41;;;17.94;45.77
41947;BME280;27638;42.184;24.848;2022-10-18T10:20:41;101222.13;;;17.71;47.64
41947;BME280;27638;42.184;24.848;2022-10-18T10:25:56;101209.69;;;17.78;48.37
41947;BME280;27638;42.184;24.848;2022-10-18T10:28:27;101196.13;;;17.64;47.07
41947;BME280;27638;42.184;24.848;2022-10-18T10:30:53;101204.50;;;17.77;47.47
41947;BME280;27638;42.184;24.848;2022-10-18T10:33:37;101189.88;;;17.96;46.04
41947;BME280;27638;42.184;24.848;2022-10-18T10:36:19;101182.34;;;17.91;46.76
41947;BME280;27638;42.184;24.848;2022-10-18T10:38:44;101180.94;;;18.03;44.65
41947;BME280;27638;42.184;24.848;2022-10-18T10:41:20;101168.28;;;18.20;44.06
41947;BME280;27638;42.184;24.848;2022-10-18T10:43:46;101159.91;;;17.92;44.23
41947;BME280;27638;42.184;24.848;2022-10-18T10:46:15;101154.56;;;17.84;43.66
41947;BME280;27638;42.184;24.848;2022-10-18T10:48:51;101143.28;;;17.97;43.00
41947;BME280;27638;42.184;24.848;2022-10-18T10:51:29;101142.16;;;17.91;43.88
41947;BME280;27638;42.184;24.848;2022-10-18T10:56:28;101128.88;;;17.98;42.31
41947;BME280;27638;42.184;24.848;2022-10-18T10:58:57;101124.31;;;18.06;42.56
41947;BME280;27638;42.184;24.848;2022-10-18T11:01:28;101120.84;;;18.21;42.69
41947;BME280;27638;42.184;24.848;2022-10-18T11:03:56;101116.16;;;18.23;41.72
41947;BME280;27638;42.184;24.848;2022-10-18T11:06:35;101101.25;;;18.43;39.86
41947;BME280;27638;42.184;24.848;2022-10-18T11:09:05;101097.31;;;18.31;40.79
41947;BME280;27638;42.184;24.848;2022-10-18T11:11:38;101087.91;;;18.12;39.92
41947;BME280;27638;42.184;24.848;2022-10-18T11:14:26;101082.28;;;18.44;38.78
41947;BME280;27638;42.184;24.848;2022-10-18T11:17:05;101081.84;;;18.18;37.61
41947;BME280;27638;42.184;24.848;2022-10-18T11:22:04;101067.13;;;18.14;37.81
41947;BME280;27638;42.184;24.848;2022-10-18T11:24:34;101065.75;;;18.18;36.25
41947;BME280;27638;42.184;24.848;2022-10-18T11:27:21;101056.22;;;18.15;37.20
41947;BME280;27638;42.184;24.848;2022-10-18T11:29:59;101057.34;;;18.21;37.93
41947;BME280;27638;42.184;24.848;2022-10-18T11:41:18;101026.44;;;18.48;36.57
41947;BME280;27638;42.184;24.848;2022-10-18T11:43:56;101031.34;;;18.44;35.14
41947;BME280;27638;42.184;24.848;2022-10-18T12:00:07;101006.06;;;18.24;31.91
41947;BME280;27638;42.184;24.848;2022-10-18T12:05:25;100993.91;;;18.13;32.93
41947;BME280;27638;42.184;24.848;2022-10-18T12:07:59;100995.88;;;18.19;33.05
41947;BME280;27638;42.184;24.848;2022-10-18T12:10:28;100992.94;;;18.29;32.70
41947;BME280;27638;42.184;24.848;2022-10-18T12:13:01;100981.38;;;18.29;32.75
41947;BME280;27638;42.184;24.848;2022-10-18T12:15:30;100976.28;;;18.34;32.30
41947;BME280;27638;42.184;24.848;2022-10-18T12:18:02;100979.25;;;18.39;31.55
41947;BME280;27638;42.184;24.848;2022-10-18T12:20:39;100965.13;;;18.45;32.30
41947;BME280;27638;42.184;24.848;2022-10-18T12:23:13;100967.72;;;18.53;32.17
41947;BME280;27638;42.184;24.848;2022-10-18T12:25:41;100973.25;;;18.37;32.60
41947;BME280;27638;42.184;24.848;2022-10-18T12:33:51;100949.75;;;18.39;31.33
41947;BME280;27638;42.184;24.848;2022-10-18T12:38:58;100939.13;;;18.31;31.69
41947;BME280;27638;42.184;24.848;2022-10-18T12:41:28;100942.63;;;18.31;30.88
41947;BME280;27638;42.184;24.848;2022-10-18T12:44:30;100946.53;;;18.58;31.29
41947;BME280;27638;42.184;24.848;2022-10-18T12:46:58;100932.66;;;18.40;32.53
41947;BME280;27638;42.184;24.848;2022-10-18T12:49:36;100935.06;;;18.35;31.41
41947;BME280;27638;42.184;24.848;2022-10-18T12:52:06;100930.91;;;18.47;31.46
41947;BME280;27638;42.184;24.848;2022-10-18T12:55:04;100929.72;;;18.64;31.54
41947;BME280;27638;42.184;24.848;2022-10-18T13:22:18;100897.41;;;19.02;31.50
41947;BME280;27638;42.184;24.848;2022-10-18T13:25:19;100888.06;;;18.98;31.32
41947;BME280;27638;42.184;24.848;2022-10-18T13:27:56;100891.16;;;18.80;31.38
41947;BME280;27638;42.184;24.848;2022-10-18T13:30:29;100895.97;;;18.85;31.73
41947;BME280;27638;42.184;24.848;2022-10-18T13:41:06;100873.44;;;19.00;31.39
41947;BME280;27638;42.184;24.848;2022-10-18T13:46:20;100873.53;;;19.07;32.00
41947;BME280;27638;42.184;24.848;2022-10-18T13:49:23;100865.00;;;19.03;31.96
41947;BME280;27638;42.184;24.848;2022-10-18T13:54:21;100864.19;;;19.03;32.06
41947;BME280;27638;42.184;24.848;2022-10-18T13:57:18;100858.56;;;19.19;31.89
41947;BME280;27638;42.184;24.848;2022-10-18T14:05:50;100853.81;;;19.00;32.48
41947;BME280;27638;42.184;24.848;2022-10-18T14:08:21;100852.50;;;19.10;33.10
41947;BME280;27638;42.184;24.848;2022-10-18T14:13:25;100847.69;;;19.06;34.32
41947;BME280;27638;42.184;24.848;2022-10-18T14:15:57;100852.31;;;19.12;34.07
41947;BME280;27638;42.184;24.848;2022-10-18T14:18:30;100843.69;;;19.17;33.66
41947;BME280;27638;42.184;24.848;2022-10-18T14:21:42;100827.75;;;19.15;33.54
41947;BME280;27638;42.184;24.848;2022-10-18T14:23:49;100831.41;;;19.07;33.90
41947;BME280;27638;42.184;24.848;2022-10-18T14:26:19;100830.00;;;19.11;33.31
41947;BME280;27638;42.184;24.848;2022-10-18T14:29:01;100823.72;;;19.26;33.10
41947;BME280;27638;42.184;24.848;2022-10-18T14:31:27;100821.38;;;19.16;32.62
41947;BME280;27638;42.184;24.848;2022-10-18T14:33:54;100823.84;;;18.96;32.11
41947;BME280;27638;42.184;24.848;2022-10-18T14:36:25;100817.28;;;18.99;32.43
41947;BME280;27638;42.184;24.848;2022-10-18T14:39:00;100818.66;;;18.95;33.22
41947;BME280;27638;42.184;24.848;2022-10-18T14:41:33;100818.06;;;18.78;33.84
41947;BME280;27638;42.184;24.848;2022-10-18T14:46:41;100811.53;;;19.02;33.42
41947;BME280;27638;42.184;24.848;2022-10-18T14:49:09;100806.66;;;18.91;33.55
41947;BME280;27638;42.184;24.848;2022-10-18T14:51:35;100797.63;;;18.77;34.07
41947;BME280;27638;42.184;24.848;2022-10-18T14:54:05;100808.69;;;18.89;34.26
41947;BME280;27638;42.184;24.848;2022-10-18T14:56:37;100800.22;;;18.70;34.56
41947;BME280;27638;42.184;24.848;2022-10-18T14:59:10;100801.16;;;18.77;34.78
41947;BME280;27638;42.184;24.848;2022-10-18T15:01:37;100797.44;;;18.78;34.80
41947;BME280;27638;42.184;24.848;2022-10-18T15:04:08;100794.31;;;18.75;34.84
41947;BME280;27638;42.184;24.848;2022-10-18T15:06:41;100797.91;;;18.67;35.07
41947;BME280;27638;42.184;24.848;2022-10-18T15:09:08;100796.63;;;18.63;35.47